createdAt,value
2019-02-04T00:03:19.878Z,97510.47
2019-02-04T00:08:21.613Z,97535.28
2019-02-04T00:13:23.050Z,97555.27
2019-02-04T00:18:24.594Z,97561.41
2019-02-04T00:23:26.026Z,97578.09
2019-02-04T00:28:28.557Z,97586.13
2019-02-04T00:33:30.033Z,97588.73
2019-02-04T00:38:31.661Z,97587.58
2019-02-04T00:43:33.099Z,97600.83
2019-02-04T00:48:34.581Z,97608.81
2019-02-04T00:53:37.229Z,97630.42
2019-02-04T00:58:38.649Z,97629.70
2019-02-04T01:03:40.627Z,97647.52
2019-02-04T01:08:42.097Z,97652.38
2019-02-04T01:13:43.522Z,97657.27
2019-02-04T01:18:44.963Z,97676.85
2019-02-04T01:23:46.390Z,97687.73
2019-02-04T01:28:48.828Z,97709.93
2019-02-04T01:33:50.305Z,97724.63
2019-02-04T01:38:51.744Z,97734.48
2019-02-04T01:43:53.174Z,97754.59
2019-02-04T01:48:54.645Z,97745.41
2019-02-04T01:53:56.082Z,97760.75
2019-02-04T01:58:57.563Z,97768.51
2019-02-04T02:03:59.000Z,97774.17
2019-02-04T02:09:00.473Z,97792.41
2019-02-04T02:14:01.994Z,97797.67
2019-02-04T02:19:03.590Z,97809.89
2019-02-04T02:24:05.146Z,97840.77
2019-02-04T02:29:06.677Z,97846.86
2019-02-04T02:34:08.112Z,97859.58
2019-02-04T02:39:09.611Z,97877.39
2019-02-04T02:44:11.237Z,97891.32
2019-02-04T02:49:12.678Z,97909.20
2019-02-04T02:54:15.514Z,97908.66
2019-02-04T02:59:17.365Z,97933.94
2019-02-04T03:04:18.818Z,97936.49
2019-02-04T03:09:20.255Z,97944.39
2019-02-04T03:14:21.709Z,97961.77
2019-02-04T03:19:23.216Z,97968.63
2019-02-04T03:24:24.692Z,97982.94
2019-02-04T03:29:26.148Z,97984.58
2019-02-04T03:34:27.679Z,97997.37
2019-02-04T03:39:29.106Z,98016.95
2019-02-04T03:44:30.537Z,98030.91
2019-02-04T03:49:32.013Z,98043.70
2019-02-04T03:54:39.470Z,98057.25
2019-02-04T03:59:40.906Z,98069.88
2019-02-04T04:04:42.336Z,98081.69
2019-02-04T04:09:43.767Z,98087.81
2019-02-04T04:14:45.241Z,98104.23
2019-02-04T04:19:46.713Z,98098.14
2019-02-04T04:24:48.151Z,98092.07
2019-02-04T04:29:49.590Z,98118.74
2019-02-04T04:34:51.039Z,98134.13
2019-02-04T04:39:52.472Z,98141.19
2019-02-04T04:44:53.946Z,98148.89
2019-02-04T04:49:55.375Z,98148.49
2019-02-04T04:54:57.113Z,98157.92
2019-02-04T04:59:58.677Z,98173.13
2019-02-04T05:05:00.317Z,98195.23
2019-02-04T05:10:03.240Z,98207.83
2019-02-04T05:15:09.575Z,98213.80
2019-02-04T05:20:14.911Z,98225.17
2019-02-04T05:25:16.854Z,98250.84
2019-02-04T05:30:21.467Z,98250.11
2019-02-04T05:35:23.088Z,98264.50
2019-02-04T05:40:24.620Z,98277.55
2019-02-04T05:45:26.056Z,98285.87
2019-02-04T05:50:27.514Z,98305.70
2019-02-04T05:55:30.605Z,98312.17
2019-02-04T06:00:34.338Z,98333.77
2019-02-04T06:05:35.762Z,98349.04
2019-02-04T06:10:37.397Z,98356.99
2019-02-04T06:15:38.934Z,98369.45
2019-02-04T06:20:40.753Z,98374.08
2019-02-04T06:25:42.373Z,98384.53
2019-02-04T06:30:43.807Z,98391.00
2019-02-04T06:35:45.689Z,98409.35
2019-02-04T06:40:47.225Z,98416.32
2019-02-04T06:45:48.712Z,98428.84
2019-02-04T06:50:51.062Z,98431.05
2019-02-04T06:55:52.727Z,98441.44
2019-02-04T07:00:54.268Z,98444.93
2019-02-04T07:05:55.760Z,98454.84
2019-02-04T07:10:57.394Z,98463.06
2019-02-04T07:15:58.827Z,98467.85
2019-02-04T07:21:00.298Z,98482.47
2019-02-04T07:26:01.736Z,98482.53
2019-02-04T07:31:03.460Z,98495.08
2019-02-04T07:36:05.139Z,98508.61
2019-02-04T07:41:06.742Z,98513.89
2019-02-04T07:46:08.372Z,98533.39
2019-02-04T07:51:09.904Z,98549.12
2019-02-04T07:56:11.329Z,98571.65
2019-02-04T08:01:12.863Z,98582.41
2019-02-04T08:06:14.349Z,98594.02
2019-02-04T08:11:16.127Z,98593.33
2019-02-04T08:16:19.087Z,98608.24
2019-02-04T08:21:20.947Z,98619.47
2019-02-04T08:26:22.693Z,98620.67
2019-02-04T08:31:24.406Z,98635.47
2019-02-04T08:36:27.474Z,98643.20
2019-02-04T08:41:29.185Z,98644.18
2019-02-04T08:46:31.880Z,98657.79
2019-02-04T08:51:33.741Z,98670.38
2019-02-04T08:56:35.625Z,98669.38
2019-02-04T09:01:37.536Z,98678.43
2019-02-04T09:06:39.049Z,98678.95
2019-02-04T09:11:41.105Z,98696.16
2019-02-04T09:16:44.122Z,98711.53
2019-02-04T09:21:45.816Z,98725.09
2019-02-04T09:26:47.256Z,98729.69
2019-02-04T09:31:48.721Z,98735.59
2019-02-04T09:36:50.142Z,98741.86
2019-02-04T09:41:52.013Z,98751.84
2019-02-04T09:46:53.454Z,98754.14
2019-02-04T09:51:54.890Z,98752.58
2019-02-04T09:56:56.460Z,98755.69
2019-02-04T10:01:58.095Z,98768.57
2019-02-04T10:06:59.533Z,98771.67
2019-02-04T10:12:01.000Z,98772.14
2019-02-04T10:17:02.526Z,98774.59
2019-02-04T10:22:04.460Z,98773.09
2019-02-04T10:27:06.081Z,98773.16
2019-02-04T10:32:07.819Z,98777.70
2019-02-04T10:37:09.253Z,98777.70
2019-02-04T10:42:10.806Z,98779.80
2019-02-04T10:47:12.758Z,98780.09
2019-02-04T10:52:14.342Z,98778.06
2019-02-04T10:57:15.969Z,98784.30
2019-02-04T11:02:17.480Z,98786.22
2019-02-04T11:07:19.092Z,98795.78
2019-02-04T11:12:20.805Z,98800.63
2019-02-04T11:17:22.439Z,98805.39
2019-02-04T11:22:23.907Z,98822.19
2019-02-04T11:27:25.729Z,98820.46
2019-02-04T11:32:27.270Z,98828.14
2019-02-04T11:37:28.731Z,98817.11
2019-02-04T11:42:30.319Z,98822.77
2019-02-04T11:47:32.125Z,98825.84
2019-02-04T11:52:35.177Z,98830.50
2019-02-04T11:57:37.135Z,98837.70
2019-02-04T12:02:39.072Z,98841.20
2019-02-04T12:07:40.730Z,98838.66
2019-02-04T12:12:42.397Z,98852.88
2019-02-04T12:17:44.145Z,98840.28
2019-02-04T12:22:47.681Z,98849.33
2019-02-04T12:27:49.475Z,98844.34
2019-02-04T12:32:51.105Z,98837.48
2019-02-04T12:37:52.601Z,98831.16
2019-02-04T12:42:54.549Z,98831.01
2019-02-04T12:47:56.210Z,98838.95
2019-02-04T12:52:57.891Z,98842.66
2019-02-04T12:58:00.177Z,98836.97
2019-02-04T13:03:02.389Z,98836.81
2019-02-04T13:08:06.817Z,98839.33
2019-02-04T13:13:12.684Z,98842.45
2019-02-04T13:18:14.438Z,98846.64
2019-02-04T13:23:16.634Z,98843.09
2019-02-04T13:28:18.298Z,98844.72
2019-02-04T13:33:20.500Z,98849.95
2019-02-04T13:38:22.046Z,98843.09
2019-02-04T13:43:23.671Z,98839.16
2019-02-04T13:48:25.623Z,98845.65
2019-02-04T13:53:27.284Z,98855.28
2019-02-04T13:58:29.064Z,98854.34
2019-02-04T14:03:30.647Z,98862.23
2019-02-04T14:08:32.206Z,98865.99
2019-02-04T14:13:33.816Z,98873.36
2019-02-04T14:18:35.436Z,98875.56
2019-02-04T14:23:37.016Z,98873.61
2019-02-04T14:28:38.623Z,98875.14
2019-02-04T14:33:40.080Z,98877.33
2019-02-04T14:38:41.742Z,98883.93
2019-02-04T14:43:43.896Z,98890.03
2019-02-04T14:48:56.867Z,98886.59
2019-02-04T14:54:38.084Z,98885.66
2019-02-04T14:59:40.604Z,98885.12
2019-02-04T15:04:56.443Z,98896.25
2019-02-04T15:10:23.481Z,98904.75
2019-02-04T15:16:11.831Z,98902.56
2019-02-04T15:21:38.946Z,98899.99
2019-02-04T15:26:55.238Z,98893.55
2019-02-04T15:32:23.882Z,98910.22
2019-02-04T15:37:36.529Z,98917.22
2019-02-04T15:43:08.022Z,98926.05
2019-02-04T15:48:12.677Z,98941.13
2019-02-04T15:53:14.177Z,98942.19
2019-02-04T15:58:15.665Z,98947.59
2019-02-04T16:03:17.712Z,98950.43
2019-02-04T16:08:19.330Z,98951.73
2019-02-04T16:13:20.942Z,98954.68
2019-02-04T16:18:22.600Z,98955.56
2019-02-04T16:23:24.140Z,98959.11
2019-02-04T16:28:25.607Z,98957.25
2019-02-04T16:33:27.518Z,98948.05
2019-02-04T16:38:29.116Z,98960.52
2019-02-04T16:43:31.158Z,98968.05
2019-02-04T16:48:32.789Z,98979.92
2019-02-04T16:53:34.226Z,98983.00
2019-02-04T16:58:35.702Z,98997.80
2019-02-04T17:03:38.179Z,98994.22
2019-02-04T17:08:39.732Z,98983.38
2019-02-04T17:13:41.233Z,98989.49
2019-02-04T17:18:43.072Z,98978.54
2019-02-04T17:23:45.369Z,98974.95
2019-02-04T17:28:47.006Z,98988.10
2019-02-04T17:33:48.548Z,98996.83
2019-02-04T17:38:50.172Z,98993.29
2019-02-04T17:43:51.710Z,98999.95
2019-02-04T17:48:53.175Z,98996.41
2019-02-04T17:53:54.685Z,98999.06
2019-02-04T17:58:56.250Z,99000.45
2019-02-04T18:03:57.741Z,98999.19
2019-02-04T18:08:59.191Z,99006.95
2019-02-04T18:14:00.664Z,99005.22
2019-02-04T18:19:02.818Z,98999.66
2019-02-04T18:24:04.526Z,98992.32
2019-02-04T18:29:06.156Z,98994.52
2019-02-04T18:34:08.246Z,99004.16
2019-02-04T18:39:10.038Z,98998.81
2019-02-04T18:44:11.802Z,99004.54
2019-02-04T18:49:13.737Z,99008.13
2019-02-04T18:54:15.644Z,99006.98
2019-02-04T18:59:17.216Z,99000.99
2019-02-04T19:04:18.912Z,99000.61
2019-02-04T19:09:21.866Z,99002.72
2019-02-04T19:14:23.782Z,99004.36
2019-02-04T19:19:25.733Z,99000.49
2019-02-04T19:24:27.196Z,99005.41
2019-02-04T19:29:28.782Z,98999.85
2019-02-04T19:34:30.323Z,98993.36
2019-02-04T19:39:32.100Z,98995.42
2019-02-04T19:44:33.569Z,98988.13
2019-02-04T19:49:35.146Z,98979.84
2019-02-04T19:54:36.851Z,98991.97
2019-02-04T19:59:38.740Z,98993.16
2019-02-04T20:04:40.523Z,98987.51
2019-02-04T20:09:42.262Z,98989.62
2019-02-04T20:14:43.807Z,98988.73
2019-02-04T20:19:45.277Z,98990.63
2019-02-04T20:24:46.798Z,98993.13
2019-02-04T20:29:48.257Z,98994.97
2019-02-04T20:34:49.811Z,99002.22
2019-02-04T20:39:51.686Z,98996.41
2019-02-04T20:44:53.267Z,99000.75
2019-02-04T20:49:54.808Z,98995.95
2019-02-04T20:54:56.355Z,99002.02
2019-02-04T20:59:57.856Z,99004.58
2019-02-04T21:04:59.475Z,99001.97
2019-02-04T21:10:01.178Z,99003.87
2019-02-04T21:15:09.809Z,99007.83
2019-02-04T21:20:23.550Z,99008.72
2019-02-04T21:25:25.443Z,98999.06
2019-02-04T21:30:35.588Z,98999.66
2019-02-04T21:35:37.695Z,98991.94
2019-02-04T21:40:39.538Z,98996.31
2019-02-04T21:45:41.236Z,98997.20
2019-02-04T21:50:42.803Z,99003.19
2019-02-04T21:55:44.281Z,98993.08
2019-02-04T22:00:45.896Z,98992.45
2019-02-04T22:05:47.479Z,98996.11
2019-02-04T22:10:49.108Z,99001.75
2019-02-04T22:15:50.791Z,99004.59
2019-02-04T22:20:52.341Z,98996.87
2019-02-04T22:25:53.873Z,98990.55
2019-02-04T22:30:55.416Z,98987.55
2019-02-04T22:35:56.840Z,98993.23
2019-02-04T22:40:58.294Z,98992.81
2019-02-04T22:45:59.764Z,98989.78
2019-02-04T22:51:01.212Z,98986.41
2019-02-04T22:56:03.739Z,98985.44
2019-02-04T23:01:17.009Z,98998.92
2019-02-04T23:06:18.702Z,98994.66
2019-02-04T23:11:20.437Z,98990.67
2019-02-04T23:16:21.953Z,98993.23
2019-02-04T23:21:23.699Z,98992.81
2019-02-04T23:26:27.106Z,98986.16
2019-02-04T23:31:28.593Z,98992.11
2019-02-04T23:36:30.317Z,98984.22
2019-02-04T23:41:31.792Z,98981.91
2019-02-04T23:46:33.357Z,98980.36
2019-02-04T23:51:34.994Z,98965.94
2019-02-04T23:56:36.439Z,98959.73
